Nearby METAR Reports

YMHB - Hobart/Tasmania, Australia
Distance from Franklin: NE 55km
Updated: 26/04/2018 02:00
Partly cloudy
Partly cloudy
 Wind from N
Wind: N 13 km/h
Temperature: 11°C
Dew Point: 8°C
Humidity: 82%
Barometer: 1007 hPa
Clouds: Partly cloudy
Visibility: 10 km
Cloud details: Partly cloudy 2073 m
2018/04/25 16:00 YMHB 251600Z AUTO 36007KT 9999 // SCT068 11/08 Q1007 RF00.0/000.0
YMLT - Launceston Airpo, Australia
Distance from Franklin: N 179km
Updated: 26/04/2018 02:00
Mostly cloudy
Mostly cloudy
 Wind from NNW
Wind: NNW 24 km/h
Temperature: 11°C
Dew Point: 10°C
Humidity: 94%
Barometer: 1010 hPa
Clouds: Mostly cloudy
Visibility: 10 km
Cloud details: Mostly cloudy 1615 m
2018/04/25 16:00 YMLT 251600Z AUTO 34013KT 9999 // BKN053 11/10 Q1010 RF00.0/000.0
 
YMAV - Avalon Airport, Australia
Distance from Franklin: NNW 601km
Updated: 26/04/2018 02:00
Partly cloudy
Partly cloudy
 Wind from WNW
Wind: WNW 9 km/h
Temperature: 12°C
Dew Point: 10°C
Humidity: 88%
Barometer: 1016 hPa
Clouds: Partly cloudy
Visibility: 10 km
Cloud details: Partly cloudy 1524 m
2018/04/25 16:00 YMAV 251600Z AUTO 30005KT 9999 // SCT050 12/10 Q1016
YMML - Melbourne Intl A, Australia
Distance from Franklin: NNW 631km
Updated: 26/04/2018 02:00
Clear
Clear
 Wind from NNW
Wind: NNW 11 km/h
Temperature: 11°C
Dew Point: 7°C
Humidity: 77%
Barometer: 1016 hPa
Summary: Clear
Visibility: greater than 10 km
2018/04/25 16:00 YMML 251600Z 33006KT CAVOK 11/07 Q1016